Time;durP1;ratioP1;P1;durP2;ratioP2;P2;SDS_P1;SDS_P2;PMS_P1;PMS_P2;Temp;Humidity;BMP_temperature;BMP_pressure;BME280_temperature;BME280_humidity;BME280_pressure;Samples;Min_cycle;Max_cycle;Signal;HPM_P1;HPM_P2
2019/09/19 00:02:03;;;;;;;12.4;3.7;;;;;;;10.23;67.06836;968.1939;;;;
2019/09/19 00:04:28;;;;;;;9.6;3.3;;;;;;;10.21;67.3418;968.1923;;;;
2019/09/19 00:06:53;;;;;;;11.5;3.6;;;;;;;10.16;67.82715;968.1555;;;;
2019/09/19 00:09:26;;;;;;;10.7;3.2;;;;;;;10.23;67.22754;968.1805;;;;
2019/09/19 00:11:43;;;;;;;12.1;3.7;;;;;;;10.35;66.85742;968.1642;;;;
2019/09/19 00:14:09;;;;;;;12.3;4.3;;;;;;;10.38;66.83887;968.1378;;;;
2019/09/19 00:16:34;;;;;;;13.6;5.2;;;;;;;10.35;67.08789;968.1365;;;;
2019/09/19 00:18:59;;;;;;;11.8;4.7;;;;;;;10.39;66.66895;968.1556;;;;
2019/09/19 00:21:24;;;;;;;14;5;;;;;;;10.28;67.10938;968.1493;;;;
2019/09/19 00:23:49;;;;;;;14.9;4.9;;;;;;;10.05;67.63965;968.0941;;;;
2019/09/19 00:26:14;;;;;;;12.2;4.2;;;;;;;10.15;67.70117;968.1049;;;;
2019/09/19 00:28:39;;;;;;;10.8;3.6;;;;;;;10.16;67.72363;968.0919;;;;
2019/09/19 00:31:04;;;;;;;9.5;3.9;;;;;;;10.26;67.72754;968.0593;;;;
2019/09/19 00:33:29;;;;;;;10.6;3.7;;;;;;;10.02;68.47168;968.0373;;;;
2019/09/19 00:35:55;;;;;;;10.6;3.4;;;;;;;9.84;68.99609;968.0419;;;;
2019/09/19 00:38:20;;;;;;;9;3.3;;;;;;;9.75;69.63672;968.0575;;;;
2019/09/19 00:40:45;;;;;;;10.4;3.5;;;;;;;9.73;69.94238;968.0989;;;;
2019/09/19 00:43:11;;;;;;;9.9;3.5;;;;;;;9.77;69.75586;968.0206;;;;
2019/09/19 00:45:36;;;;;;;7.8;2.8;;;;;;;9.86;69.34375;967.9886;;;;
2019/09/19 00:48:01;;;;;;;12.1;3.6;;;;;;;9.87;69.25195;968.0254;;;;
2019/09/19 00:50:27;;;;;;;10.1;3.5;;;;;;;9.85;69.56055;968.0323;;;;
2019/09/19 00:52:52;;;;;;;10.4;3.3;;;;;;;9.85;69.93945;968.0455;;;;
2019/09/19 00:55:17;;;;;;;11.1;3.6;;;;;;;9.74;69.8291;968.0722;;;;
2019/09/19 00:57:43;;;;;;;14.5;3.7;;;;;;;9.75;70.26855;968.0204;;;;
2019/09/19 01:00:08;;;;;;;9.7;3.4;;;;;;;9.73;70.06836;968.0305;;;;
2019/09/19 01:02:33;;;;;;;11.4;3.5;;;;;;;9.84;69.31641;968.0212;;;;
2019/09/19 01:04:58;;;;;;;11.7;3.5;;;;;;;9.94;69.05664;968.0372;;;;
2019/09/19 01:07:23;;;;;;;10.6;3.8;;;;;;;9.96;68.69336;967.9949;;;;
2019/09/19 01:09:49;;;;;;;11;3.7;;;;;;;10.04;68.1543;968.0111;;;;
2019/09/19 01:12:14;;;;;;;10.2;3.6;;;;;;;10.03;68.22168;967.9508;;;;
2019/09/19 01:14:39;;;;;;;10.1;3.4;;;;;;;9.98;68.28223;967.9455;;;;
2019/09/19 01:17:04;;;;;;;9;3.3;;;;;;;9.97;68.55664;967.9902;;;;
2019/09/19 01:19:29;;;;;;;9.9;3.2;;;;;;;9.94;68.60938;968.0047;;;;
2019/09/19 01:21:54;;;;;;;11;3.7;;;;;;;10.05;68.18945;967.9674;;;;
2019/09/19 01:24:19;;;;;;;13.8;3.4;;;;;;;10.08;67.88477;967.9738;;;;
2019/09/19 01:26:45;;;;;;;10.3;3.3;;;;;;;10.12;67.66113;967.918;;;;
2019/09/19 01:29:10;;;;;;;10.1;3.5;;;;;;;9.79;68.30957;968.0059;;;;
2019/09/19 01:31:35;;;;;;;13.1;3.5;;;;;;;9.83;68.65039;968.0014;;;;
2019/09/19 01:34:00;;;;;;;10.2;3.7;;;;;;;9.69;69.16699;967.9918;;;;
2019/09/19 01:36:26;;;;;;;13.9;4.1;;;;;;;9.69;69.0625;968.045;;;;
2019/09/19 01:38:51;;;;;;;12;3.7;;;;;;;9.64;69.08984;968.084;;;;
2019/09/19 01:41:16;;;;;;;10.7;3.5;;;;;;;9.6;69.0957;968.0906;;;;
2019/09/19 01:43:41;;;;;;;9.5;3.3;;;;;;;9.58;70.00977;968.0934;;;;
2019/09/19 01:46:06;;;;;;;7.4;3.1;;;;;;;9.57;69.82617;968.1351;;;;
2019/09/19 01:48:31;;;;;;;9.4;2.8;;;;;;;9.77;69.06641;968.1175;;;;
2019/09/19 01:50:56;;;;;;;9.3;2.9;;;;;;;9.91;68.2373;968.1177;;;;
2019/09/19 01:53:21;;;;;;;9.9;3;;;;;;;9.46;69.29004;968.0622;;;;
2019/09/19 01:55:47;;;;;;;9.2;2.9;;;;;;;9.3;69.63184;968.0925;;;;
2019/09/19 01:58:12;;;;;;;9.8;2.7;;;;;;;9.59;68.93359;968.0864;;;;
2019/09/19 02:00:37;;;;;;;6.8;2.6;;;;;;;9.51;69.19434;968.132;;;;
2019/09/19 02:03:03;;;;;;;8.7;3;;;;;;;9.76;68.28125;968.1397;;;;
2019/09/19 02:05:28;;;;;;;7.6;2.8;;;;;;;9.62;68.67285;968.0744;;;;
2019/09/19 02:07:53;;;;;;;10.4;3;;;;;;;9.48;68.83594;968.1306;;;;
2019/09/19 02:10:18;;;;;;;11;4;;;;;;;9.38;69.19824;968.1259;;;;
2019/09/19 02:12:43;;;;;;;12.8;4.4;;;;;;;9.22;69.76953;968.1492;;;;
2019/09/19 02:15:08;;;;;;;10.9;4.5;;;;;;;9.09;70.19531;968.1667;;;;
2019/09/19 02:17:34;;;;;;;9.2;3.9;;;;;;;9.31;69.63477;968.1746;;;;
2019/09/19 02:19:59;;;;;;;11.1;3.5;;;;;;;9.19;69.75195;968.2114;;;;
2019/09/19 02:22:24;;;;;;;9.7;3.2;;;;;;;8.99;70.67383;968.2525;;;;
2019/09/19 02:24:50;;;;;;;8.7;2.8;;;;;;;9.08;70.19336;968.2754;;;;
2019/09/19 02:27:15;;;;;;;7.2;2.4;;;;;;;9.28;70.16992;968.2327;;;;
2019/09/19 02:29:40;;;;;;;10.1;3.3;;;;;;;8.87;71.05371;968.3055;;;;
2019/09/19 02:32:06;;;;;;;7.7;3;;;;;;;8.74;71.47852;968.3239;;;;
2019/09/19 02:34:31;;;;;;;10.3;3;;;;;;;8.95;71.18066;968.3209;;;;
2019/09/19 02:36:56;;;;;;;8.3;2.9;;;;;;;8.89;71.14844;968.2941;;;;
2019/09/19 02:39:22;;;;;;;8.3;3.3;;;;;;;9.07;70.79883;968.2815;;;;
2019/09/19 02:41:47;;;;;;;10.3;3.8;;;;;;;9.04;70.96777;968.3106;;;;
2019/09/19 02:44:12;;;;;;;10.6;3.5;;;;;;;9.11;70.83008;968.323;;;;
2019/09/19 02:46:37;;;;;;;8.2;3.6;;;;;;;9.06;70.65918;968.4158;;;;
2019/09/19 02:49:02;;;;;;;11.8;4.6;;;;;;;9.16;70.10352;968.3542;;;;
2019/09/19 02:51:27;;;;;;;10.8;4.9;;;;;;;8.94;70.98535;968.3617;;;;
2019/09/19 02:53:52;;;;;;;13.5;5.4;;;;;;;8.93;71.0625;968.363;;;;
2019/09/19 02:56:19;;;;;;;11.8;5.1;;;;;;;8.96;71.14746;968.4308;;;;
2019/09/19 02:58:46;;;;;;;12.4;5.5;;;;;;;8.91;71.49609;968.4385;;;;
2019/09/19 03:01:14;;;;;;;14.2;5.7;;;;;;;8.85;71.46191;968.3631;;;;
2019/09/19 03:03:33;;;;;;;12.1;4.5;;;;;;;9.04;71.55273;968.3448;;;;
2019/09/19 03:05:58;;;;;;;12.3;4;;;;;;;9;71.21289;968.4238;;;;
2019/09/19 03:08:23;;;;;;;8.8;3.4;;;;;;;8.93;70.3291;968.3833;;;;
2019/09/19 03:10:48;;;;;;;9.6;3.5;;;;;;;8.89;70.72461;968.4266;;;;
2019/09/19 03:13:13;;;;;;;12;3.7;;;;;;;8.97;70.8291;968.4035;;;;
2019/09/19 03:15:39;;;;;;;9.4;3.3;;;;;;;9.1;69.74902;968.4079;;;;
2019/09/19 03:18:10;;;;;;;9.4;3;;;;;;;9.09;70.60742;968.4732;;;;
2019/09/19 03:20:35;;;;;;;9.4;3.2;;;;;;;8.84;70.07422;968.4244;;;;
2019/09/19 03:23:00;;;;;;;9.2;2.9;;;;;;;8.75;71.6748;968.4063;;;;
2019/09/19 03:25:25;;;;;;;8.6;2.9;;;;;;;8.75;71.9043;968.4063;;;;
2019/09/19 03:27:50;;;;;;;11.2;3.3;;;;;;;8.73;71.27148;968.3963;;;;
2019/09/19 03:30:16;;;;;;;7.6;3;;;;;;;8.79;71.7041;968.4387;;;;
2019/09/19 03:32:41;;;;;;;8.2;3;;;;;;;8.69;72.07715;968.4103;;;;
2019/09/19 03:35:06;;;;;;;10;3.2;;;;;;;8.69;71.57422;968.4526;;;;
2019/09/19 03:37:31;;;;;;;10;3.2;;;;;;;8.55;71.83691;968.4645;;;;
2019/09/19 03:39:57;;;;;;;15;4.9;;;;;;;8.54;71.48047;968.4319;;;;
2019/09/19 03:42:22;;;;;;;15.5;6.3;;;;;;;8.58;71.64648;968.4545;;;;
2019/09/19 03:44:47;;;;;;;19.2;6.1;;;;;;;8.72;71.16504;968.4512;;;;
2019/09/19 03:47:12;;;;;;;11.9;4.5;;;;;;;8.73;71.11035;968.4719;;;;
2019/09/19 03:49:37;;;;;;;11;4.3;;;;;;;8.64;71.35938;968.4285;;;;
2019/09/19 03:52:02;;;;;;;14.2;4.2;;;;;;;8.57;72.14941;968.3714;;;;
2019/09/19 03:54:28;;;;;;;10.5;3.7;;;;;;;8.54;71.82227;968.3992;;;;
2019/09/19 03:56:53;;;;;;;9;3.2;;;;;;;8.61;71.77734;968.4183;;;;
2019/09/19 03:59:18;;;;;;;11.3;3.6;;;;;;;8.52;72.13086;968.3862;;;;
2019/09/19 04:02:29;;;;;;;9.1;3;;;;;;;8.61;71.39941;968.4094;;;;
2019/09/19 04:04:54;;;;;;;9.4;2.9;;;;;;;8.6;72.24609;968.4228;;;;
2019/09/19 04:07:19;;;;;;;9.1;3.2;;;;;;;8.61;71.10156;968.4833;;;;
2019/09/19 04:09:44;;;;;;;8.3;2.9;;;;;;;8.66;71.17871;968.5723;;;;
2019/09/19 04:12:09;;;;;;;8;3;;;;;;;8.76;70.83984;968.5917;;;;
2019/09/19 04:14:34;;;;;;;9.3;3.1;;;;;;;8.63;71.05859;968.5808;;;;
2019/09/19 04:16:59;;;;;;;11.4;3.5;;;;;;;8.63;71.12891;968.5446;;;;
2019/09/19 04:19:24;;;;;;;11.1;3.6;;;;;;;8.69;71.3457;968.5469;;;;
2019/09/19 04:21:49;;;;;;;12.9;3.8;;;;;;;8.64;72.22852;968.5673;;;;
2019/09/19 04:24:15;;;;;;;15.3;3.9;;;;;;;8.59;71.7627;968.568;;;;
2019/09/19 04:26:40;;;;;;;11.6;3.7;;;;;;;8.56;73.30469;968.5279;;;;
2019/09/19 04:29:05;;;;;;;12.7;3.9;;;;;;;8.42;72.42285;968.5723;;;;
2019/09/19 04:31:30;;;;;;;10.9;3.8;;;;;;;8.52;71.92285;968.5974;;;;
2019/09/19 04:33:55;;;;;;;12.9;3.9;;;;;;;8.64;71.94238;968.6031;;;;
2019/09/19 04:36:20;;;;;;;10.9;3.8;;;;;;;8.6;72.75;968.6298;;;;
2019/09/19 04:38:45;;;;;;;12.2;4;;;;;;;8.67;72.39551;968.6605;;;;
2019/09/19 04:41:10;;;;;;;11.5;3.6;;;;;;;8.73;72.64648;968.6548;;;;
2019/09/19 04:43:35;;;;;;;11.4;3.7;;;;;;;8.74;71.9375;968.6871;;;;
2019/09/19 04:46:00;;;;;;;12.5;3.5;;;;;;;8.79;72.37988;968.7264;;;;
2019/09/19 04:48:26;;;;;;;11.6;3.6;;;;;;;8.92;71.93262;968.7081;;;;
2019/09/19 04:50:51;;;;;;;9;3;;;;;;;8.99;71.66992;968.7564;;;;
2019/09/19 04:53:16;;;;;;;10.3;3.1;;;;;;;8.98;70.40527;968.7617;;;;
2019/09/19 04:55:41;;;;;;;11.7;3.1;;;;;;;9.09;70.29785;968.6887;;;;
2019/09/19 04:58:06;;;;;;;10.5;3.4;;;;;;;9.03;70.49414;968.7555;;;;
2019/09/19 05:00:31;;;;;;;8.2;2.8;;;;;;;8.93;70.74219;968.7718;;;;
2019/09/19 05:02:56;;;;;;;11;2.7;;;;;;;9.06;70.73926;968.8516;;;;
2019/09/19 05:05:21;;;;;;;11.7;3.3;;;;;;;8.97;71.12793;968.8811;;;;
2019/09/19 05:07:46;;;;;;;10.7;3.3;;;;;;;9;70.53613;968.8889;;;;
2019/09/19 05:10:11;;;;;;;12.1;3.2;;;;;;;9.02;71.43359;968.838;;;;
2019/09/19 05:12:37;;;;;;;11.4;3.3;;;;;;;9.08;70.22656;968.9095;;;;
2019/09/19 05:15:03;;;;;;;9.9;3;;;;;;;9.14;70.37402;968.9997;;;;
2019/09/19 05:17:28;;;;;;;10;3.2;;;;;;;9.22;69.37793;969.0119;;;;
2019/09/19 05:19:53;;;;;;;10.3;2.8;;;;;;;8.98;69.0293;969.0488;;;;
2019/09/19 05:22:18;;;;;;;8.9;3.1;;;;;;;9.01;69.78223;969.0533;;;;
2019/09/19 05:27:15;;;;;;;10.2;3.4;;;;;;;8.98;68.98535;969.0935;;;;
2019/09/19 05:29:40;;;;;;;10.1;2.9;;;;;;;8.93;69.88086;969.0212;;;;
2019/09/19 05:32:05;;;;;;;10.7;3.4;;;;;;;8.91;69.63867;969.0765;;;;
2019/09/19 05:34:30;;;;;;;9.3;3;;;;;;;9.03;69.33789;969.0722;;;;
2019/09/19 05:36:55;;;;;;;10.4;3.4;;;;;;;8.93;70.28223;969.0831;;;;
2019/09/19 05:39:21;;;;;;;10.1;2.9;;;;;;;8.81;69.85156;969.1328;;;;
2019/09/19 05:41:46;;;;;;;10.2;3;;;;;;;8.88;69.67871;969.1127;;;;
2019/09/19 05:44:11;;;;;;;11.3;3.2;;;;;;;9;69.70996;969.1169;;;;
2019/09/19 05:46:36;;;;;;;11.6;3.3;;;;;;;8.95;69.60938;969.175;;;;
2019/09/19 05:49:01;;;;;;;13;4.8;;;;;;;8.96;69.86328;969.1867;;;;
2019/09/19 05:51:26;;;;;;;13.1;4.1;;;;;;;8.74;70.58496;969.1478;;;;
2019/09/19 05:53:51;;;;;;;9.8;3.3;;;;;;;8.83;70.15234;969.1881;;;;
2019/09/19 05:56:16;;;;;;;12;3.2;;;;;;;8.89;69.50977;969.2151;;;;
2019/09/19 05:58:42;;;;;;;11;3.7;;;;;;;9.06;69.30762;969.2518;;;;
2019/09/19 06:01:07;;;;;;;12.9;3.3;;;;;;;9.06;69.49121;969.3083;;;;
2019/09/19 06:03:32;;;;;;;15.1;3.4;;;;;;;8.87;70.10156;969.3091;;;;
2019/09/19 06:05:57;;;;;;;13.2;3.4;;;;;;;8.73;70.56055;969.3178;;;;
2019/09/19 06:08:22;;;;;;;11.9;2.9;;;;;;;8.75;71.12402;969.3342;;;;
2019/09/19 06:10:47;;;;;;;13.2;3.7;;;;;;;8.79;71.74023;969.329;;;;
2019/09/19 06:13:12;;;;;;;9.3;3.2;;;;;;;8.73;71.23535;969.3836;;;;
2019/09/19 06:15:37;;;;;;;11.1;3.4;;;;;;;8.62;70.8623;969.4052;;;;
2019/09/19 06:18:03;;;;;;;8.8;3;;;;;;;8.54;72.12207;969.4255;;;;
2019/09/19 06:20:28;;;;;;;11.3;3.2;;;;;;;8.57;70.99219;969.4227;;;;
2019/09/19 06:22:53;;;;;;;10.4;3.2;;;;;;;8.68;71.11328;969.4858;;;;
2019/09/19 06:25:18;;;;;;;9.9;3.2;;;;;;;8.75;70.58691;969.5358;;;;
2019/09/19 06:27:43;;;;;;;12.3;3.2;;;;;;;8.84;70.37207;969.6177;;;;
2019/09/19 06:30:08;;;;;;;9.9;3;;;;;;;8.84;70.22266;969.6973;;;;
2019/09/19 06:32:33;;;;;;;10.2;3.2;;;;;;;9;69.93945;969.7411;;;;
2019/09/19 06:34:58;;;;;;;12.2;3.5;;;;;;;8.94;70.7207;969.7467;;;;
2019/09/19 06:37:23;;;;;;;12.6;3.6;;;;;;;9.07;70.43262;969.7899;;;;
2019/09/19 06:39:48;;;;;;;13.9;3.9;;;;;;;9.09;71.44531;969.8636;;;;
2019/09/19 06:42:14;;;;;;;8.7;3.4;;;;;;;9.14;70.43164;969.887;;;;
2019/09/19 06:44:39;;;;;;;10.6;3.7;;;;;;;9.19;70.21094;969.9094;;;;
2019/09/19 06:47:04;;;;;;;10.2;3.1;;;;;;;9.22;71.01953;969.8611;;;;
2019/09/19 06:49:29;;;;;;;11.8;3.2;;;;;;;9.35;69.73242;969.8931;;;;
2019/09/19 06:51:54;;;;;;;11.4;3.3;;;;;;;9.29;69.79102;969.9426;;;;
2019/09/19 06:54:19;;;;;;;12.8;3.1;;;;;;;9.33;70.50977;969.9092;;;;
2019/09/19 06:56:44;;;;;;;9.9;2.9;;;;;;;9.49;68.74512;969.9191;;;;
2019/09/19 06:59:09;;;;;;;10;2.8;;;;;;;9.65;69.125;969.9058;;;;
2019/09/19 07:01:34;;;;;;;9.4;2.8;;;;;;;9.62;69.5;969.9794;;;;
2019/09/19 07:04:00;;;;;;;11.6;2.8;;;;;;;9.51;69.06934;969.9804;;;;
2019/09/19 07:06:25;;;;;;;10.7;2.7;;;;;;;9.78;69.37695;970.0048;;;;
2019/09/19 07:08:50;;;;;;;9.8;2.8;;;;;;;9.84;69.01953;970.0463;;;;
2019/09/19 07:11:15;;;;;;;10.4;3;;;;;;;9.79;67.83691;969.9691;;;;
2019/09/19 07:13:40;;;;;;;9.7;2.7;;;;;;;9.93;68.48145;969.9863;;;;
2019/09/19 07:16:05;;;;;;;8.9;2.8;;;;;;;10;68.86133;970.0506;;;;
2019/09/19 07:18:30;;;;;;;9.2;2.6;;;;;;;10.07;69.18164;969.975;;;;
2019/09/19 07:20:55;;;;;;;8.8;2.8;;;;;;;10.13;67.41113;970.0164;;;;
2019/09/19 07:23:21;;;;;;;9.4;2.7;;;;;;;10.3;67.16016;969.9872;;;;
2019/09/19 07:25:46;;;;;;;10.6;2.7;;;;;;;10.42;66.9248;970.0242;;;;
2019/09/19 07:28:11;;;;;;;10.1;2.8;;;;;;;10.47;67.14063;970.0759;;;;
2019/09/19 07:30:36;;;;;;;10.7;2.8;;;;;;;10.4;67.46289;970.0648;;;;
2019/09/19 07:33:01;;;;;;;11.6;2.7;;;;;;;10.6;65.80273;970.105;;;;
2019/09/19 07:35:26;;;;;;;12;2.9;;;;;;;10.4;66.03613;970.0648;;;;
2019/09/19 07:37:51;;;;;;;11.4;3;;;;;;;10.4;66.20996;970.0748;;;;
2019/09/19 07:40:16;;;;;;;10.5;3;;;;;;;10.46;65.80273;970.1063;;;;
2019/09/19 07:42:41;;;;;;;7.2;2.3;;;;;;;10.6;65.30664;970.0739;;;;
2019/09/19 07:45:07;;;;;;;7.9;2.2;;;;;;;10.74;65.27051;970.0909;;;;
2019/09/19 07:47:32;;;;;;;7.9;2.5;;;;;;;10.81;66.13379;970.07;;;;
2019/09/19 07:49:57;;;;;;;10.4;3;;;;;;;10.81;66.38867;970.0578;;;;
2019/09/19 07:52:22;;;;;;;10.8;2.5;;;;;;;10.93;65.67969;970.1182;;;;
2019/09/19 07:54:47;;;;;;;12.7;2.8;;;;;;;11.04;65.75293;970.1838;;;;
2019/09/19 07:57:12;;;;;;;10.9;3;;;;;;;11.13;64.44141;970.2087;;;;
2019/09/19 07:59:37;;;;;;;9.3;2.6;;;;;;;11.07;64.42188;970.2072;;;;
2019/09/19 08:02:02;;;;;;;11.6;2.7;;;;;;;11.11;63.72461;970.2092;;;;
2019/09/19 08:04:27;;;;;;;9.6;2.5;;;;;;;11.12;64.3252;970.2053;;;;
2019/09/19 08:06:52;;;;;;;10.3;2.4;;;;;;;11.14;62.99121;970.2233;;;;
2019/09/19 08:09:18;;;;;;;8.7;2.3;;;;;;;11.16;63.29395;970.2112;;;;
2019/09/19 08:11:43;;;;;;;10.2;2.3;;;;;;;11.2;62.94336;970.1953;;;;
2019/09/19 08:14:08;;;;;;;9.1;2.6;;;;;;;11.24;62.32617;970.2169;;;;
2019/09/19 08:16:33;;;;;;;6.6;2.4;;;;;;;11.27;63.3457;970.2579;;;;
2019/09/19 08:18:58;;;;;;;7.9;2.1;;;;;;;11.34;62.36328;970.2456;;;;
2019/09/19 08:21:23;;;;;;;11.4;2.9;;;;;;;11.45;62.36719;970.3111;;;;
2019/09/19 08:23:48;;;;;;;11.6;3;;;;;;;11.51;63.0459;970.3569;;;;
2019/09/19 08:26:13;;;;;;;10.9;2.8;;;;;;;11.58;63.90918;970.3491;;;;
2019/09/19 08:28:38;;;;;;;9.6;2.7;;;;;;;11.62;61.93164;970.303;;;;
2019/09/19 08:31:03;;;;;;;7.9;2.6;;;;;;;11.73;62.82422;970.3466;;;;
2019/09/19 08:33:29;;;;;;;9.2;2.4;;;;;;;11.71;61.36621;970.296;;;;
2019/09/19 08:35:54;;;;;;;6.2;2.2;;;;;;;11.63;62.00098;970.2761;;;;
2019/09/19 08:38:19;;;;;;;8.8;2.3;;;;;;;11.85;60.87891;970.2592;;;;
2019/09/19 08:40:44;;;;;;;9.7;2.4;;;;;;;11.79;61.14648;970.3108;;;;
2019/09/19 08:43:09;;;;;;;12.7;2.7;;;;;;;11.85;60.57715;970.3176;;;;
2019/09/19 08:45:34;;;;;;;12.2;2.8;;;;;;;11.95;61.42285;970.2826;;;;
2019/09/19 08:47:59;;;;;;;13.3;2.7;;;;;;;11.89;59.92578;970.3486;;;;
2019/09/19 08:50:24;;;;;;;11.6;2.8;;;;;;;12.02;59.60938;970.3622;;;;
2019/09/19 08:52:49;;;;;;;9.2;2.1;;;;;;;12.01;60.96973;970.3375;;;;
2019/09/19 08:55:14;;;;;;;9.1;2.3;;;;;;;12.14;59.40723;970.3661;;;;
2019/09/19 08:57:44;;;;;;;10.9;2.6;;;;;;;12.25;59.74512;970.4437;;;;
2019/09/19 09:00:09;;;;;;;12.1;2.7;;;;;;;12.3;60.33008;970.4537;;;;
2019/09/19 09:02:34;;;;;;;10.5;2.8;;;;;;;12.34;60.24316;970.5038;;;;
2019/09/19 09:04:59;;;;;;;11.6;2.6;;;;;;;12.26;61.0166;970.4824;;;;
2019/09/19 09:07:25;;;;;;;10.2;2.7;;;;;;;12.23;61.0127;970.4628;;;;
2019/09/19 09:09:50;;;;;;;8.1;2.7;;;;;;;12.28;59.7832;970.461;;;;
2019/09/19 09:12:15;;;;;;;6.8;2.5;;;;;;;12.41;60.4248;970.3862;;;;
2019/09/19 09:14:40;;;;;;;7.4;2.1;;;;;;;12.6;59.09961;970.366;;;;
2019/09/19 09:17:05;;;;;;;8.3;2.2;;;;;;;12.63;58.65234;970.3953;;;;
2019/09/19 09:19:45;;;;;;;7.9;2.4;;;;;;;12.73;58.74805;970.4545;;;;
2019/09/19 09:21:55;;;;;;;11.6;2.4;;;;;;;12.72;57.58887;970.3912;;;;
2019/09/19 09:24:21;;;;;;;9;2.5;;;;;;;12.65;57.84473;970.2967;;;;
2019/09/19 09:26:46;;;;;;;8.9;2.5;;;;;;;12.75;58.68066;970.326;;;;
2019/09/19 09:29:11;;;;;;;8.4;2.5;;;;;;;12.99;58.37793;970.3049;;;;
2019/09/19 09:31:36;;;;;;;7.9;2.1;;;;;;;12.89;56.80078;970.3055;;;;
2019/09/19 09:34:01;;;;;;;11.5;2.5;;;;;;;12.92;56.0293;970.2249;;;;
2019/09/19 09:36:26;;;;;;;7.3;2.3;;;;;;;12.89;56.51172;970.2318;;;;
2019/09/19 09:38:51;;;;;;;8.2;2.1;;;;;;;12.98;56.52441;970.2147;;;;
2019/09/19 09:41:16;;;;;;;8.3;2.3;;;;;;;13.04;57.20215;970.1806;;;;
2019/09/19 09:43:41;;;;;;;8.8;2.4;;;;;;;13.11;56.56348;970.1523;;;;
2019/09/19 09:46:16;;;;;;;8.5;2.2;;;;;;;13.07;56.57129;970.1;;;;
2019/09/19 09:48:41;;;;;;;7.7;2.4;;;;;;;12.95;56.78516;970.1308;;;;
2019/09/19 09:51:06;;;;;;;11.1;2.6;;;;;;;13.14;55.29395;970.1688;;;;
2019/09/19 09:53:31;;;;;;;7;2.1;;;;;;;13.28;55.18359;970.1814;;;;
2019/09/19 09:55:56;;;;;;;10.5;2.3;;;;;;;13.5;55.52539;970.1872;;;;
2019/09/19 09:58:21;;;;;;;9.3;2.1;;;;;;;13.51;54.29785;970.2177;;;;
2019/09/19 10:00:46;;;;;;;8.2;2.1;;;;;;;13.4;51.8291;970.23;;;;
2019/09/19 10:03:11;;;;;;;8.1;2.2;;;;;;;13.46;52.70508;970.3273;;;;
2019/09/19 10:05:36;;;;;;;7.6;2;;;;;;;13.36;52.58789;970.3228;;;;
2019/09/19 10:08:01;;;;;;;8;2.3;;;;;;;13.46;51.15137;970.3047;;;;
2019/09/19 10:10:27;;;;;;;9.4;2.3;;;;;;;13.5;51.11133;970.2946;;;;
2019/09/19 10:12:52;;;;;;;8.8;2.3;;;;;;;13.57;52.20801;970.2233;;;;
2019/09/19 10:15:17;;;;;;;6.8;2.3;;;;;;;13.46;54.15234;970.2614;;;;
2019/09/19 10:17:42;;;;;;;7.8;2.5;;;;;;;13.39;51.98828;970.1884;;;;
2019/09/19 10:20:07;;;;;;;10;2.3;;;;;;;13.5;51.52832;970.3061;;;;
2019/09/19 10:22:32;;;;;;;8.6;1.9;;;;;;;13.57;49.99512;970.2511;;;;
2019/09/19 10:24:58;;;;;;;6.2;1.9;;;;;;;13.62;51.41406;970.2836;;;;
2019/09/19 10:27:23;;;;;;;7.6;1.7;;;;;;;13.5;52.26953;970.3273;;;;
2019/09/19 10:29:48;;;;;;;9.1;2.1;;;;;;;13.64;51.77539;970.2528;;;;
2019/09/19 10:32:13;;;;;;;6.2;1.9;;;;;;;13.74;51.19629;970.2324;;;;
2019/09/19 10:34:38;;;;;;;7.6;2.1;;;;;;;13.81;49.32715;970.184;;;;
2019/09/19 10:37:03;;;;;;;9.8;2.2;;;;;;;13.83;47.92578;970.2436;;;;
2019/09/19 10:39:28;;;;;;;7.8;2;;;;;;;13.88;47.38574;970.2593;;;;
2019/09/19 10:41:53;;;;;;;7.8;2.2;;;;;;;13.88;47.3623;970.2806;;;;
2019/09/19 10:44:18;;;;;;;16.3;2.6;;;;;;;13.92;48.46875;970.2188;;;;
2019/09/19 10:46:44;;;;;;;8.6;1.8;;;;;;;14.01;48.0625;970.2773;;;;
2019/09/19 10:49:09;;;;;;;8.7;1.8;;;;;;;14.21;47.12012;970.2983;;;;
2019/09/19 10:51:34;;;;;;;5.9;1.7;;;;;;;14.15;47.00977;970.2413;;;;
2019/09/19 10:54:00;;;;;;;7.6;1.7;;;;;;;14.18;46.31641;970.2388;;;;
2019/09/19 10:56:25;;;;;;;7.7;1.7;;;;;;;14.15;46.40625;970.2425;;;;
2019/09/19 10:58:50;;;;;;;7.2;2.1;;;;;;;14.24;45.43945;970.1945;;;;
2019/09/19 11:01:15;;;;;;;10;2;;;;;;;14.21;45.79688;970.2008;;;;
2019/09/19 11:03:40;;;;;;;6.9;1.8;;;;;;;14.29;46.58301;970.1498;;;;
2019/09/19 11:06:05;;;;;;;8.6;1.9;;;;;;;14.18;48.81152;970.1223;;;;
2019/09/19 11:08:31;;;;;;;6.4;1.9;;;;;;;14.12;46.50684;970.1058;;;;
2019/09/19 11:10:56;;;;;;;6.9;1.9;;;;;;;14.31;46.08691;970.0914;;;;
2019/09/19 11:13:21;;;;;;;7.8;1.8;;;;;;;14.26;45.84863;970.1147;;;;
2019/09/19 11:15:46;;;;;;;9;2.1;;;;;;;14.31;46.49316;970.075;;;;
2019/09/19 11:18:11;;;;;;;6.5;1.8;;;;;;;14.33;45.37988;970.0842;;;;
2019/09/19 11:20:36;;;;;;;9.1;1.8;;;;;;;14.42;45.14551;970.0541;;;;
2019/09/19 11:23:01;;;;;;;5.9;1.7;;;;;;;14.44;44.66016;970.0201;;;;
2019/09/19 11:25:27;;;;;;;8.7;2;;;;;;;14.48;45.86035;970.0352;;;;
2019/09/19 11:29:24;;;;;;;6.3;1.7;;;;;;;14.57;45.12695;969.9865;;;;
2019/09/19 11:31:49;;;;;;;6.6;1.8;;;;;;;14.48;44.75684;970.0045;;;;
2019/09/19 11:34:14;;;;;;;6.3;1.9;;;;;;;14.43;44.74023;969.9094;;;;
2019/09/19 11:36:39;;;;;;;7.3;1.8;;;;;;;14.58;45.54492;969.9127;;;;
2019/09/19 11:39:06;;;;;;;6.1;1.9;;;;;;;14.55;45.34473;969.9129;;;;
2019/09/19 11:41:30;;;;;;;7.6;1.9;;;;;;;14.66;47.58789;969.88;;;;
2019/09/19 11:43:55;;;;;;;7;2.1;;;;;;;14.76;47.73633;969.8113;;;;
2019/09/19 11:46:20;;;;;;;9;2.2;;;;;;;14.63;48.01367;969.8253;;;;
2019/09/19 11:48:45;;;;;;;9.1;2;;;;;;;14.63;48.81445;969.7896;;;;
2019/09/19 11:51:10;;;;;;;10.9;2.7;;;;;;;14.88;48.07715;969.77;;;;
2019/09/19 11:53:35;;;;;;;7.9;2.5;;;;;;;14.84;48.53711;969.7941;;;;
2019/09/19 11:56:00;;;;;;;6.8;2.2;;;;;;;14.98;47.23926;969.8383;;;;
2019/09/19 11:58:26;;;;;;;8.8;1.9;;;;;;;14.96;46.5498;969.8817;;;;
2019/09/19 12:00:51;;;;;;;5.6;1.7;;;;;;;14.83;46.04883;969.8708;;;;
2019/09/19 12:03:16;;;;;;;8.5;2.2;;;;;;;14.82;46.1748;969.9125;;;;
2019/09/19 12:05:41;;;;;;;8;2;;;;;;;14.89;46.14746;969.9088;;;;
2019/09/19 12:08:06;;;;;;;5.7;2.1;;;;;;;14.93;45.99023;969.9459;;;;
2019/09/19 12:10:31;;;;;;;7;1.7;;;;;;;14.94;44.11816;969.969;;;;
2019/09/19 12:12:56;;;;;;;6.7;1.7;;;;;;;14.94;45.01367;969.9706;;;;
2019/09/19 12:15:21;;;;;;;6.8;1.8;;;;;;;14.78;44.7998;969.9915;;;;
2019/09/19 12:17:46;;;;;;;7;1.5;;;;;;;14.9;44.19531;969.9836;;;;
2019/09/19 12:20:11;;;;;;;5.3;1.5;;;;;;;14.88;43.48535;969.9572;;;;
2019/09/19 12:22:36;;;;;;;7.2;1.5;;;;;;;14.95;44.22461;969.9428;;;;
2019/09/19 12:25:01;;;;;;;6.1;1.8;;;;;;;15.04;43.70996;969.9486;;;;
2019/09/19 12:27:27;;;;;;;6;1.7;;;;;;;15.07;44.43359;969.9819;;;;
2019/09/19 12:29:52;;;;;;;6.1;1.8;;;;;;;15.17;42.76953;970.0037;;;;
2019/09/19 12:32:17;;;;;;;6.9;1.6;;;;;;;15.27;43.38379;969.9626;;;;
2019/09/19 12:34:42;;;;;;;6;1.7;;;;;;;15.08;43.98047;969.9454;;;;
2019/09/19 12:37:07;;;;;;;8;1.7;;;;;;;14.99;45.26367;969.929;;;;
2019/09/19 12:39:32;;;;;;;5.9;1.6;;;;;;;15.1;44.13379;969.9595;;;;
2019/09/19 12:41:57;;;;;;;6.3;1.8;;;;;;;15.04;43.25586;969.9125;;;;
2019/09/19 12:44:22;;;;;;;4.9;1.6;;;;;;;15.05;44.41992;969.9037;;;;
2019/09/19 12:46:47;;;;;;;5.2;1.5;;;;;;;14.98;43.36719;969.8875;;;;
2019/09/19 12:49:12;;;;;;;5.3;1.6;;;;;;;15.01;43.7998;969.8808;;;;
2019/09/19 12:51:43;;;;;;;7;1.6;;;;;;;15.24;44.08984;969.8858;;;;
2019/09/19 12:54:02;;;;;;;4.8;1.5;;;;;;;15.11;46.05469;969.8705;;;;
2019/09/19 12:56:27;;;;;;;4.7;1.6;;;;;;;15.25;44.23145;969.9376;;;;
2019/09/19 12:58:53;;;;;;;5.3;1.4;;;;;;;15.29;43.29297;969.8965;;;;
2019/09/19 13:01:18;;;;;;;6.8;1.5;;;;;;;15.08;43.64355;969.8797;;;;
2019/09/19 13:03:43;;;;;;;5.7;1.5;;;;;;;14.89;43.48535;969.8892;;;;
2019/09/19 13:06:11;;;;;;;5.2;1.6;;;;;;;14.87;43.32031;969.8053;;;;
2019/09/19 13:08:46;;;;;;;4.4;1.4;;;;;;;15;44.27637;969.8289;;;;
2019/09/19 13:10:58;;;;;;;6;1.6;;;;;;;15.15;42.89453;969.7849;;;;
2019/09/19 13:13:23;;;;;;;6.3;1.4;;;;;;;15.16;43.19824;969.8045;;;;
2019/09/19 13:15:48;;;;;;;4.6;1.5;;;;;;;15.24;43.7998;969.8242;;;;
2019/09/19 13:18:13;;;;;;;6;1.5;;;;;;;15.33;41.29492;969.8159;;;;
2019/09/19 13:20:38;;;;;;;6.8;1.7;;;;;;;15.3;42.40918;969.7521;;;;
2019/09/19 13:23:03;;;;;;;5.1;1.5;;;;;;;15.33;42.72656;969.6738;;;;
2019/09/19 13:25:28;;;;;;;6.5;1.6;;;;;;;15.29;43.54883;969.7241;;;;
2019/09/19 13:27:54;;;;;;;3.9;1.4;;;;;;;15.44;42.49219;969.7134;;;;
2019/09/19 13:30:19;;;;;;;6.8;1.4;;;;;;;15.28;42.19824;969.7533;;;;
2019/09/19 13:32:44;;;;;;;4.9;1.5;;;;;;;15.27;41.55664;969.8469;;;;
2019/09/19 13:35:09;;;;;;;4.9;1.3;;;;;;;15.24;41.77539;969.8085;;;;
2019/09/19 13:37:34;;;;;;;5.3;1.2;;;;;;;15.18;41.6416;969.7936;;;;
2019/09/19 13:39:59;;;;;;;4.4;1.5;;;;;;;15.23;41.08789;969.7428;;;;
2019/09/19 13:42:25;;;;;;;5.7;1.2;;;;;;;15.33;42.48145;969.6959;;;;
2019/09/19 13:44:50;;;;;;;5.7;1.4;;;;;;;15.3;42.60742;969.7349;;;;
2019/09/19 13:47:15;;;;;;;5.3;1.4;;;;;;;15.15;42.51172;969.7314;;;;
2019/09/19 13:49:40;;;;;;;4.7;1.3;;;;;;;15.15;44.45313;969.7495;;;;
2019/09/19 13:52:06;;;;;;;4;1.2;;;;;;;15.27;43.63965;969.796;;;;
2019/09/19 13:54:31;;;;;;;5.3;1.6;;;;;;;15.21;42.21387;969.8293;;;;
2019/09/19 13:56:56;;;;;;;3.9;1.3;;;;;;;15.28;42.91992;969.7771;;;;
2019/09/19 13:59:21;;;;;;;3.7;1.3;;;;;;;15.45;42.95996;969.8261;;;;
2019/09/19 14:01:46;;;;;;;4.6;1.4;;;;;;;15.28;43.91992;969.8741;;;;
2019/09/19 14:04:11;;;;;;;5.4;1.3;;;;;;;15.15;42.51074;969.7988;;;;
2019/09/19 14:06:37;;;;;;;3.5;1.2;;;;;;;15.2;42.7373;969.8367;;;;
2019/09/19 14:09:03;;;;;;;4.7;1.4;;;;;;;15.29;42.00098;969.7881;;;;
2019/09/19 14:11:27;;;;;;;4.6;1.3;;;;;;;15.38;42.40527;969.7897;;;;
2019/09/19 14:13:52;;;;;;;3.7;1.1;;;;;;;15.56;42.2832;969.7861;;;;
2019/09/19 14:16:18;;;;;;;4.1;1.4;;;;;;;15.46;42.35547;969.7449;;;;
2019/09/19 14:18:43;;;;;;;5.2;1.3;;;;;;;15.41;41.53516;969.6917;;;;